Friday, May 25, 2018, 12:55 PM EDT
Back to Local

KJHW, Jamestown, Chautauqua County/jamestown Airport

Location: Jamestown, NY, United States Lat: 42.15
Local Time: 12:55 PM EDT (16:55 GMT) Lon: -79.267
Time Zone: US/Eastern Elev: 1722 ft

Show me the last for .
Show Decoded

2018-05-25 11:56 METAR KJHW 251556Z AUTO 25009KT 10SM CLR 23/10 A3002 RMK AO2 SLP164 T02330100 =
2018-05-25 10:56 METAR KJHW 251456Z AUTO 25006KT 10SM CLR 23/12 A3004 RMK AO2 SLP167 T02280117
                 58012 =
2018-05-25 09:56 METAR KJHW 251356Z AUTO 23007KT 10SM CLR 21/11 A3005 RMK AO2 SLP173 T02060106 =
2018-05-25 08:56 METAR KJHW 251256Z AUTO 24005KT 10SM CLR 18/09 A3007 RMK AO2 SLP179 T01830094 =
2018-05-25 07:56 METAR KJHW 251156Z AUTO 18004KT 10SM CLR 14/08 A3007 RMK AO2 SLP183 T01390078
                 10156 20122 58004 =
2018-05-25 06:56 METAR KJHW 251056Z AUTO 18004KT 10SM CLR 13/07 A3008 RMK AO2 SLP186 T01280067 =
2018-05-25 04:56 METAR KJHW 250856Z AUTO 19004KT 10SM CLR 13/07 A3009 RMK AO2 SLP186 T01330067
                 57010 =
2018-05-25 03:56 METAR KJHW 250756Z AUTO 18003KT 10SM CLR 14/06 A3010 RMK AO2 SLP191 T01440061 =
2018-05-25 02:56 METAR KJHW 250656Z AUTO 19003KT 10SM CLR 14/06 A3010 RMK AO2 SLP192 T01390061
                 TSNO =
2018-05-25 01:56 METAR KJHW 250556Z AUTO 19003KT 10SM CLR 16/06 A3012 RMK AO2 SLP195 T01560056
                 10211 20144 57007 =
2018-05-25 00:56 METAR KJHW 250456Z AUTO 19004KT 10SM CLR 16/06 A3013 RMK AO2 SLP198 T01560056
                 402500094 =
2018-05-24 23:56 METAR KJHW 250356Z AUTO 20004KT 10SM CLR 15/04 A3013 RMK AO2 SLP201 T01500039 =
2018-05-24 22:56 METAR KJHW 250256Z AUTO 00000KT 10SM CLR 17/03 A3014 RMK AO2 SLP204 T01670033
                 58005 =
2018-05-24 21:56 METAR KJHW 250156Z AUTO 36005KT 10SM CLR 19/02 A3015 RMK AO2 SLP206 T01940017 =
2018-05-24 20:56 METAR KJHW 250056Z AUTO 31005KT 10SM CLR 20/02 A3015 RMK AO2 SLP209 T02000022 =
2018-05-24 19:56 METAR KJHW 242356Z AUTO 31005KT 10SM CLR 21/07 A3016 RMK AO2 SLP212 T02110067
                 10250 20211 56009 =
2018-05-24 18:56 METAR KJHW 242256Z AUTO 32005KT 10SM CLR 23/06 A3016 RMK AO2 SLP214 T02330061 =
2018-05-24 17:56 METAR KJHW 242156Z AUTO 30006KT 10SM CLR 24/06 A3018 RMK AO2 SLP218 T02390061 =
2018-05-24 16:56 METAR KJHW 242056Z AUTO 27008KT 6SM HZ CLR 24/05 A3019 RMK AO2 SLP222 T02440050
                 56009 =
2018-05-24 16:51 METAR KJHW 242051Z AUTO 00000KT 6SM HZ CLR 24/06 A3019 RMK AO2 =
2018-05-24 16:44 METAR KJHW 242044Z AUTO 21004KT 2SM HZ CLR 24/06 A3019 RMK AO2 VIS 1/2V5 =
2018-05-24 15:56 METAR KJHW 241956Z AUTO VRB04KT 10SM CLR 24/06 A3020 RMK AO2 SLP227 T02440056 =
2018-05-24 14:56 METAR KJHW 241856Z AUTO 34010KT 10SM CLR 24/06 A3021 RMK AO2 SLP230 T02440056 =
2018-05-24 13:56 METAR KJHW 241756Z AUTO 02007KT 10SM CLR 24/05 A3023 RMK AO2 SLP237 T02390050
                 10239 20133 58007 =
2018-05-24 12:56 METAR KJHW 241656Z AUTO 29006KT 10SM CLR 24/07 A3025 RMK AO2 SLP242 T02390067 =

Support USWX by starting your Amazon purchase here.